createdAt,value
2017-07-26T00:00:44.732Z,74.20
2017-07-26T00:03:13.022Z,74.10
2017-07-26T00:05:41.305Z,74.20
2017-07-26T00:08:09.586Z,74.20
2017-07-26T00:10:38.605Z,74.50
2017-07-26T00:13:06.908Z,73.90
2017-07-26T00:15:35.190Z,74.00
2017-07-26T00:18:04.272Z,74.10
2017-07-26T00:20:33.368Z,73.90
2017-07-26T00:23:01.649Z,73.90
2017-07-26T00:25:29.905Z,74.00
2017-07-26T00:27:58.206Z,73.90
2017-07-26T00:30:26.486Z,73.90
2017-07-26T00:32:55.512Z,74.10
2017-07-26T00:35:23.777Z,73.90
2017-07-26T00:37:52.023Z,73.60
2017-07-26T00:40:20.297Z,73.60
2017-07-26T00:42:48.563Z,73.60
2017-07-26T00:45:16.817Z,73.80
2017-07-26T00:47:45.064Z,74.00
2017-07-26T00:50:13.388Z,73.90
2017-07-26T00:52:42.413Z,73.60
2017-07-26T00:55:10.694Z,73.50
2017-07-26T00:57:38.961Z,73.90
2017-07-26T01:00:07.214Z,73.90
2017-07-26T01:02:35.464Z,74.10
2017-07-26T01:05:03.784Z,74.10
2017-07-26T01:07:32.076Z,74.30
2017-07-26T01:10:00.412Z,74.40
2017-07-26T01:12:28.714Z,74.60
2017-07-26T01:14:57.002Z,74.60
2017-07-26T01:17:26.058Z,74.80
2017-07-26T01:19:54.330Z,74.80
2017-07-26T01:22:22.677Z,74.60
2017-07-26T01:24:50.959Z,74.60
2017-07-26T01:27:20.030Z,75.00
2017-07-26T01:29:48.285Z,75.00
2017-07-26T01:32:16.532Z,75.30
2017-07-26T01:34:44.869Z,75.20
2017-07-26T01:37:13.141Z,75.20
2017-07-26T01:39:41.396Z,75.00
2017-07-26T01:42:09.668Z,75.30
2017-07-26T01:44:37.924Z,75.50
2017-07-26T01:47:06.226Z,75.70
2017-07-26T01:49:35.264Z,76.20
2017-07-26T01:52:03.519Z,76.10
2017-07-26T01:54:31.777Z,76.50
2017-07-26T01:57:00.061Z,76.80
2017-07-26T01:59:28.338Z,76.50
2017-07-26T02:01:57.358Z,76.10
2017-07-26T02:04:25.642Z,76.00
2017-07-26T02:06:53.893Z,76.10
2017-07-26T02:09:21.948Z,76.00
2017-07-26T02:11:50.216Z,76.00
2017-07-26T02:14:18.507Z,75.90
2017-07-26T02:16:47.586Z,75.00
2017-07-26T02:19:16.648Z,74.50
2017-07-26T02:21:44.921Z,74.50
2017-07-26T02:24:13.193Z,74.10
2017-07-26T02:26:41.457Z,73.60
2017-07-26T02:29:09.738Z,73.20
2017-07-26T02:31:38.016Z,73.00
2017-07-26T02:34:06.134Z,72.50
2017-07-26T02:36:34.470Z,72.40
2017-07-26T02:39:03.274Z,72.70
2017-07-26T02:41:31.589Z,72.00
2017-07-26T02:43:59.834Z,71.70
2017-07-26T02:46:28.124Z,71.60
2017-07-26T02:48:57.163Z,71.30
2017-07-26T02:51:25.442Z,71.20
2017-07-26T02:53:53.728Z,71.10
2017-07-26T02:56:22.782Z,70.70
2017-07-26T02:58:51.027Z,70.70
2017-07-26T03:01:19.999Z,70.70
2017-07-26T03:03:48.306Z,70.60
2017-07-26T03:06:16.616Z,70.50
2017-07-26T03:08:44.916Z,70.40
2017-07-26T03:11:13.184Z,70.30
2017-07-26T03:13:42.244Z,70.20
2017-07-26T03:16:10.531Z,70.10
2017-07-26T03:18:39.565Z,70.00
2017-07-26T03:21:08.538Z,69.90
2017-07-26T03:23:36.785Z,69.80
2017-07-26T03:26:05.057Z,69.80
2017-07-26T03:28:33.350Z,69.70
2017-07-26T03:31:02.394Z,69.70
2017-07-26T03:33:30.664Z,69.70
2017-07-26T03:35:58.923Z,69.60
2017-07-26T03:38:27.201Z,69.60
2017-07-26T03:40:55.462Z,69.60
2017-07-26T03:43:23.745Z,69.60
2017-07-26T03:45:51.997Z,69.50
2017-07-26T03:48:21.061Z,69.40
2017-07-26T03:50:50.109Z,70.00
2017-07-26T03:53:18.399Z,69.20
2017-07-26T03:55:46.665Z,69.30
2017-07-26T03:58:15.721Z,70.00
2017-07-26T04:00:44.058Z,69.10
2017-07-26T04:03:12.318Z,69.10
2017-07-26T04:05:40.561Z,69.10
2017-07-26T04:08:08.855Z,69.20
2017-07-26T04:10:37.162Z,69.10
2017-07-26T04:13:05.404Z,69.10
2017-07-26T04:15:34.433Z,69.10
2017-07-26T04:18:02.867Z,69.00
2017-07-26T04:20:31.121Z,69.10
2017-07-26T04:22:59.411Z,69.00
2017-07-26T04:25:27.711Z,68.90
2017-07-26T04:27:56.007Z,69.00
2017-07-26T04:30:24.300Z,69.00
2017-07-26T04:32:52.577Z,68.80
2017-07-26T04:35:20.824Z,68.80
2017-07-26T04:37:49.107Z,68.80
2017-07-26T04:40:17.406Z,68.80
2017-07-26T04:42:45.698Z,68.70
2017-07-26T04:45:13.945Z,68.70
2017-07-26T04:47:42.214Z,68.70
2017-07-26T04:50:10.456Z,68.70
2017-07-26T04:52:38.743Z,68.70
2017-07-26T04:55:07.023Z,68.60
2017-07-26T04:57:35.278Z,68.70
2017-07-26T05:00:03.564Z,68.70
2017-07-26T05:02:32.642Z,68.60
2017-07-26T05:05:01.695Z,68.30
2017-07-26T05:07:29.979Z,68.50
2017-07-26T05:09:59.009Z,68.60
2017-07-26T05:12:27.254Z,68.60
2017-07-26T05:14:55.505Z,68.60
2017-07-26T05:17:23.812Z,68.50
2017-07-26T05:19:52.102Z,68.40
2017-07-26T05:22:21.142Z,68.50
2017-07-26T05:24:49.446Z,68.50
2017-07-26T05:27:18.483Z,68.40
2017-07-26T05:29:46.717Z,68.40
2017-07-26T05:32:15.024Z,68.40
2017-07-26T05:34:43.319Z,68.40
2017-07-26T05:37:11.560Z,68.40
2017-07-26T05:39:40.636Z,68.40
2017-07-26T05:42:08.937Z,68.30
2017-07-26T05:44:37.186Z,68.40
2017-07-26T05:47:05.272Z,68.50
2017-07-26T05:49:33.520Z,68.40
2017-07-26T05:52:01.820Z,68.50
2017-07-26T05:54:30.854Z,68.70
2017-07-26T05:56:59.101Z,68.50
2017-07-26T05:59:27.433Z,68.40
2017-07-26T06:01:56.470Z,68.50
2017-07-26T06:04:24.758Z,68.30
2017-07-26T06:06:53.769Z,68.40
2017-07-26T06:09:22.066Z,68.30
2017-07-26T06:11:50.324Z,68.30
2017-07-26T06:14:18.577Z,68.30
2017-07-26T06:16:46.875Z,68.30
2017-07-26T06:19:15.888Z,68.40
2017-07-26T06:21:44.137Z,68.30
2017-07-26T06:24:12.242Z,68.40
2017-07-26T06:26:40.525Z,68.30
2017-07-26T06:29:08.781Z,68.30
2017-07-26T06:31:37.110Z,68.90
2017-07-26T06:34:05.357Z,68.40
2017-07-26T06:36:33.639Z,68.60
2017-07-26T06:39:01.989Z,68.60
2017-07-26T06:41:31.679Z,68.50
2017-07-26T06:43:59.963Z,68.40
2017-07-26T06:46:28.281Z,68.50
2017-07-26T06:48:56.572Z,68.40
2017-07-26T06:51:24.830Z,68.40
2017-07-26T06:53:53.130Z,68.40
2017-07-26T06:56:22.180Z,68.30
2017-07-26T06:58:50.442Z,68.20
2017-07-26T07:01:18.780Z,68.20
2017-07-26T07:03:47.053Z,68.60
2017-07-26T07:06:15.308Z,68.90
2017-07-26T07:08:43.614Z,69.00
2017-07-26T07:11:11.881Z,69.00
2017-07-26T07:13:40.174Z,69.20
2017-07-26T07:16:08.445Z,69.30
2017-07-26T07:18:36.702Z,69.40
2017-07-26T07:21:04.948Z,66.90
2017-07-26T07:23:33.209Z,66.70
2017-07-26T07:26:01.459Z,67.70
2017-07-26T07:28:29.750Z,68.50
2017-07-26T07:30:58.051Z,69.20
2017-07-26T07:33:27.064Z,70.20
2017-07-26T07:35:55.314Z,70.20
2017-07-26T07:38:23.610Z,70.70
2017-07-26T07:40:51.884Z,71.50
2017-07-26T07:43:20.149Z,72.10
2017-07-26T07:45:48.428Z,71.90
2017-07-26T07:48:17.458Z,71.40
2017-07-26T07:50:45.711Z,71.30
2017-07-26T07:53:13.994Z,71.30
2017-07-26T07:55:42.296Z,70.80
2017-07-26T07:58:10.599Z,70.40
2017-07-26T08:00:38.856Z,70.30
2017-07-26T08:03:07.146Z,70.10
2017-07-26T08:05:35.469Z,69.90
2017-07-26T08:08:03.745Z,69.80
2017-07-26T08:10:32.022Z,69.70
2017-07-26T08:13:00.479Z,69.60
2017-07-26T08:15:28.774Z,69.60
2017-07-26T08:17:57.831Z,69.50
2017-07-26T08:20:26.128Z,69.50
2017-07-26T08:22:54.213Z,69.70
2017-07-26T08:25:22.502Z,69.70
2017-07-26T08:27:50.790Z,69.70
2017-07-26T08:30:19.813Z,69.60
2017-07-26T08:32:48.067Z,69.60
2017-07-26T08:35:16.370Z,69.50
2017-07-26T08:37:45.408Z,69.60
2017-07-26T08:40:13.661Z,69.60
2017-07-26T08:42:41.962Z,69.40
2017-07-26T08:45:10.238Z,69.50
2017-07-26T08:47:39.290Z,69.40
2017-07-26T08:50:07.549Z,69.30
2017-07-26T08:52:35.816Z,69.40
2017-07-26T08:55:04.098Z,69.40
2017-07-26T08:57:33.112Z,69.40
2017-07-26T09:00:01.429Z,69.40
2017-07-26T09:02:30.313Z,69.50
2017-07-26T09:04:59.329Z,69.40
2017-07-26T09:07:27.635Z,69.30
2017-07-26T09:09:56.654Z,69.30
2017-07-26T09:12:24.905Z,69.30
2017-07-26T09:14:53.178Z,69.30
2017-07-26T09:17:21.420Z,69.40
2017-07-26T09:19:49.711Z,69.50
2017-07-26T09:22:18.022Z,69.40
2017-07-26T09:24:47.049Z,69.50
2017-07-26T09:27:15.338Z,69.40
2017-07-26T09:29:43.606Z,69.50
2017-07-26T09:32:11.857Z,69.50
2017-07-26T09:34:40.108Z,69.30
2017-07-26T09:37:08.373Z,69.30
2017-07-26T09:39:36.650Z,69.40
2017-07-26T09:42:05.706Z,69.40
2017-07-26T09:44:34.045Z,69.30
2017-07-26T09:47:02.335Z,69.20
2017-07-26T09:49:30.585Z,69.20
2017-07-26T09:51:58.899Z,69.10
2017-07-26T09:54:27.174Z,69.10
2017-07-26T09:56:55.440Z,68.10
2017-07-26T09:59:23.761Z,68.60
2017-07-26T10:01:52.815Z,68.70
2017-07-26T10:04:21.117Z,68.70
2017-07-26T10:06:49.398Z,68.70
2017-07-26T10:09:17.650Z,68.70
2017-07-26T10:11:45.901Z,68.50
2017-07-26T10:14:14.207Z,68.60
2017-07-26T10:16:42.315Z,68.60
2017-07-26T10:19:10.593Z,68.70
2017-07-26T10:21:38.910Z,68.80
2017-07-26T10:24:07.954Z,68.90
2017-07-26T10:26:36.242Z,68.90
2017-07-26T10:29:05.311Z,69.80
2017-07-26T10:31:33.556Z,69.10
2017-07-26T10:34:01.840Z,69.10
2017-07-26T10:36:30.864Z,69.20
2017-07-26T10:38:59.141Z,69.10
2017-07-26T10:41:27.425Z,69.20
2017-07-26T10:43:55.689Z,69.20
2017-07-26T10:46:23.946Z,68.40
2017-07-26T10:48:52.198Z,68.90
2017-07-26T10:51:20.465Z,69.80
2017-07-26T10:53:48.754Z,69.10
2017-07-26T10:56:17.042Z,69.20
2017-07-26T10:58:45.313Z,69.20
2017-07-26T11:01:13.598Z,69.20
2017-07-26T11:03:41.866Z,69.30
2017-07-26T11:06:10.162Z,69.30
2017-07-26T11:08:38.458Z,69.30
2017-07-26T11:11:06.769Z,69.30
2017-07-26T11:13:35.842Z,69.40
2017-07-26T11:16:04.975Z,69.40
2017-07-26T11:18:33.266Z,69.40
2017-07-26T11:21:01.559Z,69.50
2017-07-26T11:23:29.805Z,68.80
2017-07-26T11:25:58.820Z,69.30
2017-07-26T11:28:27.134Z,69.20
2017-07-26T11:30:56.195Z,69.50
2017-07-26T11:33:24.474Z,69.20
2017-07-26T11:35:53.510Z,70.80
2017-07-26T11:38:21.757Z,70.00
2017-07-26T11:40:50.034Z,70.10
2017-07-26T11:43:18.304Z,70.50
2017-07-26T11:45:46.591Z,70.60
2017-07-26T11:48:15.609Z,70.60
2017-07-26T11:50:43.932Z,70.50
2017-07-26T11:53:12.978Z,67.70
2017-07-26T11:55:41.234Z,67.60
2017-07-26T11:58:09.509Z,69.00
2017-07-26T12:00:37.778Z,70.10
2017-07-26T12:03:06.025Z,70.40
2017-07-26T12:05:34.331Z,70.70
2017-07-26T12:08:02.589Z,70.90
2017-07-26T12:10:30.835Z,71.10
2017-07-26T12:12:59.940Z,65.50
2017-07-26T12:15:28.217Z,65.40
2017-07-26T12:17:56.465Z,65.60
2017-07-26T12:20:24.728Z,66.10
2017-07-26T12:22:52.990Z,66.60
2017-07-26T12:25:21.239Z,67.70
2017-07-26T12:27:49.568Z,68.40
2017-07-26T12:30:18.580Z,69.20
2017-07-26T12:32:46.829Z,69.10
2017-07-26T12:35:15.096Z,69.10
2017-07-26T12:37:43.378Z,69.20
2017-07-26T12:40:11.643Z,69.20
2017-07-26T12:42:40.618Z,69.20
2017-07-26T12:45:08.872Z,69.10
2017-07-26T12:47:37.133Z,69.10
2017-07-26T12:50:05.431Z,69.10
2017-07-26T12:52:33.710Z,69.20
2017-07-26T12:55:01.968Z,69.30
2017-07-26T12:57:30.240Z,69.30
2017-07-26T12:59:58.492Z,69.50
2017-07-26T13:02:26.744Z,69.40
2017-07-26T13:04:55.819Z,69.60
2017-07-26T13:07:24.836Z,68.70
2017-07-26T13:09:53.080Z,68.60
2017-07-26T13:12:21.388Z,68.70
2017-07-26T13:14:49.648Z,69.00
2017-07-26T13:17:17.898Z,69.30
2017-07-26T13:19:46.194Z,69.20
2017-07-26T13:22:15.268Z,69.10
2017-07-26T13:24:44.218Z,69.10
2017-07-26T13:27:12.566Z,69.00
2017-07-26T13:29:40.808Z,69.00
2017-07-26T13:32:09.102Z,68.90
2017-07-26T13:34:37.396Z,68.80
2017-07-26T13:37:05.709Z,68.70
2017-07-26T13:39:33.994Z,68.60
2017-07-26T13:42:02.264Z,68.60
2017-07-26T13:44:31.281Z,68.50
2017-07-26T13:46:59.540Z,68.50
2017-07-26T13:49:27.864Z,68.40
2017-07-26T13:51:56.918Z,68.40
2017-07-26T13:54:25.187Z,68.30
2017-07-26T13:56:53.451Z,68.30
2017-07-26T13:59:21.696Z,68.30
2017-07-26T14:01:49.963Z,68.20
2017-07-26T14:04:18.225Z,65.40
2017-07-26T14:06:46.516Z,66.40
2017-07-26T14:09:14.797Z,67.30
2017-07-26T14:11:43.081Z,67.70
2017-07-26T14:14:11.358Z,68.00
2017-07-26T14:16:39.607Z,68.10
2017-07-26T14:19:07.860Z,68.20
2017-07-26T14:21:36.113Z,68.30
2017-07-26T14:24:04.367Z,68.30
2017-07-26T14:26:32.631Z,68.40
2017-07-26T14:29:00.914Z,68.50
2017-07-26T14:31:29.160Z,68.50
2017-07-26T14:33:57.436Z,68.60
2017-07-26T14:36:25.712Z,68.60
2017-07-26T14:38:54.778Z,68.70
2017-07-26T14:41:23.871Z,68.70
2017-07-26T14:43:52.926Z,68.70
2017-07-26T14:46:21.208Z,68.70
2017-07-26T14:48:50.248Z,68.80
2017-07-26T14:51:18.501Z,68.70
2017-07-26T14:53:46.788Z,68.70
2017-07-26T14:56:15.064Z,68.70
2017-07-26T14:58:44.114Z,68.80
2017-07-26T15:01:12.668Z,68.80
2017-07-26T15:03:41.952Z,68.80
2017-07-26T15:06:10.211Z,68.90
2017-07-26T15:08:38.493Z,68.80
2017-07-26T15:11:06.795Z,68.90
2017-07-26T15:13:35.045Z,68.90
2017-07-26T15:16:04.094Z,68.90
2017-07-26T15:18:32.360Z,68.90
2017-07-26T15:21:00.646Z,69.00
2017-07-26T15:23:28.958Z,69.10
2017-07-26T15:25:57.225Z,69.00
2017-07-26T15:28:25.510Z,69.00
2017-07-26T15:30:54.561Z,69.80
2017-07-26T15:33:22.829Z,69.00
2017-07-26T15:35:51.115Z,69.00
2017-07-26T15:38:20.129Z,69.10
2017-07-26T15:40:48.388Z,69.00
2017-07-26T15:43:16.665Z,69.00
2017-07-26T15:45:44.945Z,69.00
2017-07-26T15:48:13.254Z,69.80
2017-07-26T15:50:41.505Z,69.10
2017-07-26T15:53:09.761Z,69.10
2017-07-26T15:55:38.829Z,69.10
2017-07-26T15:58:07.844Z,69.20
2017-07-26T16:00:36.097Z,69.10
2017-07-26T16:03:04.401Z,68.60
2017-07-26T16:05:32.670Z,68.90
2017-07-26T16:08:00.950Z,68.90
2017-07-26T16:10:30.552Z,69.10
2017-07-26T16:13:01.509Z,69.40
2017-07-26T16:15:30.279Z,69.40
2017-07-26T16:17:58.740Z,68.20
2017-07-26T16:20:27.061Z,68.80
2017-07-26T16:22:55.317Z,69.00
2017-07-26T16:25:24.470Z,69.10
2017-07-26T16:27:53.734Z,69.10
2017-07-26T16:30:21.986Z,69.10
2017-07-26T16:32:50.282Z,69.10
2017-07-26T16:35:18.570Z,69.10
2017-07-26T16:37:46.827Z,69.00
2017-07-26T16:40:15.135Z,69.00
2017-07-26T16:42:43.394Z,68.90
2017-07-26T16:45:11.683Z,68.90
2017-07-26T16:47:39.987Z,68.90
2017-07-26T16:50:08.228Z,68.80
2017-07-26T16:52:36.519Z,68.80
2017-07-26T16:55:04.794Z,68.80
2017-07-26T16:57:33.084Z,68.80
2017-07-26T17:00:02.135Z,69.40
2017-07-26T17:02:30.404Z,68.60
2017-07-26T17:04:58.657Z,68.60
2017-07-26T17:07:27.093Z,68.60
2017-07-26T17:09:56.257Z,68.60
2017-07-26T17:12:24.563Z,68.60
2017-07-26T17:14:52.829Z,69.20
2017-07-26T17:17:21.142Z,68.50
2017-07-26T17:19:49.397Z,68.50
2017-07-26T17:22:18.586Z,68.40
2017-07-26T17:24:46.892Z,68.40
2017-07-26T17:27:15.145Z,68.40
2017-07-26T17:29:43.446Z,68.40
2017-07-26T17:32:11.738Z,68.40
2017-07-26T17:34:40.037Z,68.40
2017-07-26T17:37:08.317Z,68.40
2017-07-26T17:39:37.388Z,68.40
2017-07-26T17:42:05.636Z,68.20
2017-07-26T17:44:33.925Z,68.30
2017-07-26T17:47:03.251Z,68.30
2017-07-26T17:49:31.496Z,68.30
2017-07-26T17:51:59.797Z,68.20
2017-07-26T17:54:28.864Z,68.20
2017-07-26T17:56:57.144Z,68.20
2017-07-26T17:59:25.384Z,68.20
2017-07-26T18:01:53.695Z,68.20
2017-07-26T18:04:21.944Z,68.20
2017-07-26T18:06:50.991Z,68.20
2017-07-26T18:09:19.295Z,68.20
2017-07-26T18:11:47.672Z,68.20
2017-07-26T18:14:15.914Z,68.10
2017-07-26T18:16:44.185Z,68.10
2017-07-26T18:19:12.476Z,68.10
2017-07-26T18:21:40.768Z,68.10
2017-07-26T18:24:09.830Z,68.10
2017-07-26T18:26:38.082Z,68.00
2017-07-26T18:29:07.404Z,68.10
2017-07-26T18:31:36.470Z,68.00
2017-07-26T18:34:05.594Z,68.00
2017-07-26T18:36:33.664Z,68.00
2017-07-26T18:39:01.962Z,68.00
2017-07-26T18:41:31.021Z,68.20
2017-07-26T18:43:59.324Z,67.90
2017-07-26T18:46:30.807Z,67.90
2017-07-26T18:48:59.054Z,67.90
2017-07-26T18:51:27.326Z,67.90
2017-07-26T18:53:55.618Z,67.90
2017-07-26T18:56:24.661Z,68.40
2017-07-26T18:58:52.915Z,67.90
2017-07-26T19:01:21.197Z,67.90
2017-07-26T19:03:49.585Z,68.00
2017-07-26T19:06:18.640Z,67.90
2017-07-26T19:08:46.927Z,67.90
2017-07-26T19:11:15.943Z,67.90
2017-07-26T19:13:44.235Z,67.90
2017-07-26T19:16:12.505Z,67.90
2017-07-26T19:18:40.753Z,67.90
2017-07-26T19:21:09.000Z,67.90
2017-07-26T19:23:37.281Z,67.90
2017-07-26T19:26:05.581Z,67.10
2017-07-26T19:28:33.974Z,67.10
2017-07-26T19:31:02.294Z,67.60
2017-07-26T19:33:31.247Z,67.40
2017-07-26T19:36:00.306Z,66.10
2017-07-26T19:38:28.573Z,66.40
2017-07-26T19:40:56.863Z,66.90
2017-07-26T19:43:25.158Z,67.80
2017-07-26T19:45:53.426Z,68.30
2017-07-26T19:48:21.717Z,67.10
2017-07-26T19:50:50.018Z,68.20
2017-07-26T19:53:18.289Z,67.50
2017-07-26T19:55:46.554Z,68.40
2017-07-26T19:58:14.831Z,69.10
2017-07-26T20:00:43.113Z,68.50
2017-07-26T20:03:11.380Z,69.00
2017-07-26T20:05:39.667Z,68.80
2017-07-26T20:08:07.948Z,68.70
2017-07-26T20:10:36.235Z,69.30
2017-07-26T20:13:04.510Z,69.50
2017-07-26T20:15:32.813Z,68.50
2017-07-26T20:18:01.109Z,69.30
2017-07-26T20:20:29.200Z,69.50
2017-07-26T20:22:57.318Z,69.60
2017-07-26T20:25:25.586Z,69.70
2017-07-26T20:27:53.885Z,69.60
2017-07-26T20:30:22.958Z,70.20
2017-07-26T20:32:51.209Z,69.70
2017-07-26T20:35:19.723Z,69.30
2017-07-26T20:37:47.993Z,70.00
2017-07-26T20:40:16.245Z,70.20
2017-07-26T20:42:44.537Z,70.30
2017-07-26T20:45:12.836Z,70.40
2017-07-26T20:47:41.888Z,70.50
2017-07-26T20:50:10.166Z,70.50
2017-07-26T20:52:39.456Z,70.60
2017-07-26T20:55:08.464Z,70.70
2017-07-26T20:57:36.718Z,70.60
2017-07-26T21:00:05.061Z,62.10
2017-07-26T21:02:33.322Z,61.20
2017-07-26T21:05:01.634Z,62.60
2017-07-26T21:07:29.938Z,63.90
2017-07-26T21:09:59.002Z,66.00
2017-07-26T21:12:28.054Z,67.70
2017-07-26T21:14:56.341Z,67.00
2017-07-26T21:17:24.618Z,67.70
2017-07-26T21:19:53.673Z,68.90
2017-07-26T21:22:21.945Z,68.80
2017-07-26T21:24:50.990Z,69.90
2017-07-26T21:27:19.244Z,69.90
2017-07-26T21:29:47.557Z,70.20
2017-07-26T21:32:15.813Z,69.80
2017-07-26T21:34:44.068Z,69.40
2017-07-26T21:37:13.117Z,68.80
2017-07-26T21:39:41.375Z,68.60
2017-07-26T21:42:09.654Z,68.50
2017-07-26T21:44:38.745Z,68.70
2017-07-26T21:47:07.789Z,68.30
2017-07-26T21:49:36.075Z,68.80
2017-07-26T21:52:05.213Z,64.30
2017-07-26T21:54:33.461Z,64.20
2017-07-26T21:57:01.716Z,64.00
2017-07-26T21:59:30.058Z,65.00
2017-07-26T22:01:58.358Z,65.90
2017-07-26T22:04:26.648Z,66.90
2017-07-26T22:06:54.924Z,67.70
2017-07-26T22:09:23.965Z,68.90
2017-07-26T22:11:52.259Z,68.80
2017-07-26T22:14:21.349Z,70.00
2017-07-26T22:16:49.600Z,70.00
2017-07-26T22:19:18.658Z,70.80
2017-07-26T22:21:46.962Z,70.80
2017-07-26T22:24:15.246Z,71.30
2017-07-26T22:26:43.604Z,71.50
2017-07-26T22:29:11.889Z,72.10
2017-07-26T22:31:40.153Z,72.60
2017-07-26T22:34:08.458Z,72.90
2017-07-26T22:36:36.770Z,73.10
2017-07-26T22:39:04.563Z,73.20
2017-07-26T22:41:32.852Z,73.20
2017-07-26T22:44:01.183Z,73.60
2017-07-26T22:46:29.686Z,73.90
2017-07-26T22:48:57.970Z,73.70
2017-07-26T22:51:26.248Z,73.20
2017-07-26T22:53:55.304Z,71.80
2017-07-26T22:56:23.581Z,71.80
2017-07-26T22:58:52.611Z,70.30
2017-07-26T23:01:20.869Z,70.80
2017-07-26T23:03:49.310Z,70.40
2017-07-26T23:06:17.626Z,70.20
2017-07-26T23:08:45.864Z,69.90
2017-07-26T23:11:14.113Z,69.80
2017-07-26T23:13:42.380Z,69.60
2017-07-26T23:16:10.638Z,69.50
2017-07-26T23:18:38.935Z,69.40
2017-07-26T23:21:07.233Z,69.30
2017-07-26T23:23:35.522Z,69.20
2017-07-26T23:26:03.777Z,69.10
2017-07-26T23:28:32.078Z,69.20
2017-07-26T23:31:00.328Z,69.20
2017-07-26T23:33:28.572Z,69.20
2017-07-26T23:35:56.849Z,69.20
2017-07-26T23:38:25.109Z,69.30
2017-07-26T23:40:53.383Z,69.30
2017-07-26T23:43:22.459Z,69.20
2017-07-26T23:45:51.526Z,69.80
2017-07-26T23:48:19.817Z,69.20
2017-07-26T23:50:48.097Z,69.20
2017-07-26T23:53:16.371Z,69.30
2017-07-26T23:55:46.059Z,69.00
2017-07-26T23:58:14.362Z,69.00
